createdAt,value
2022-12-20T00:01:09.721Z,3.30
2022-12-20T00:03:37.963Z,3.40
2022-12-20T00:06:06.159Z,3.27
2022-12-20T00:08:36.163Z,3.34
2022-12-20T00:11:07.336Z,3.41
2022-12-20T00:13:35.453Z,3.68
2022-12-20T00:16:08.168Z,3.78
2022-12-20T00:18:36.012Z,3.67
2022-12-20T00:21:05.670Z,3.52
2022-12-20T00:23:33.458Z,3.46
2022-12-20T00:26:02.862Z,3.35
2022-12-20T00:28:32.287Z,3.27
2022-12-20T00:31:00.522Z,3.26
2022-12-20T00:33:28.330Z,3.33
2022-12-20T00:35:57.128Z,3.53
2022-12-20T00:38:25.636Z,3.37
2022-12-20T00:41:01.375Z,3.22
2022-12-20T00:43:29.468Z,3.34
2022-12-20T00:45:58.762Z,3.47
2022-12-20T00:48:26.891Z,3.39
2022-12-20T00:50:59.165Z,3.46
2022-12-20T00:53:26.992Z,3.54
2022-12-20T00:55:54.883Z,3.39
2022-12-20T00:58:22.691Z,3.22
2022-12-20T01:00:56.147Z,3.48
2022-12-20T01:03:26.508Z,3.31
2022-12-20T01:05:57.151Z,3.49
2022-12-20T01:08:25.618Z,3.50
2022-12-20T01:11:00.115Z,3.50
2022-12-20T01:13:28.428Z,3.38
2022-12-20T01:15:56.678Z,3.36
2022-12-20T01:18:25.830Z,3.45
2022-12-20T01:21:02.352Z,3.32
2022-12-20T01:23:30.720Z,3.34
2022-12-20T01:25:59.719Z,3.48
2022-12-20T01:28:27.754Z,3.73
2022-12-20T01:30:55.571Z,3.74
2022-12-20T01:33:23.455Z,3.65
2022-12-20T01:36:00.059Z,3.62
2022-12-20T01:38:28.162Z,3.56
2022-12-20T01:40:57.368Z,3.56
2022-12-20T01:43:26.943Z,3.58
2022-12-20T01:45:54.877Z,3.58
2022-12-20T01:48:25.766Z,3.61
2022-12-20T01:50:54.290Z,3.46
2022-12-20T01:53:25.523Z,3.61
2022-12-20T01:55:54.923Z,3.62
2022-12-20T01:58:23.211Z,3.68
2022-12-20T02:00:51.070Z,3.73
2022-12-20T02:03:19.016Z,3.77
2022-12-20T02:05:47.741Z,3.78
2022-12-20T02:08:19.297Z,3.68
2022-12-20T02:11:10.771Z,3.61
2022-12-20T02:13:49.774Z,3.67
2022-12-20T02:16:24.205Z,3.72
2022-12-20T02:18:56.595Z,3.72
2022-12-20T02:21:35.296Z,3.69
2022-12-20T02:24:27.869Z,3.72
2022-12-20T02:27:31.324Z,3.72
2022-12-20T02:30:10.156Z,3.78
2022-12-20T02:32:43.765Z,3.75
2022-12-20T02:35:15.295Z,3.63
2022-12-20T02:37:51.270Z,3.74
2022-12-20T02:40:23.565Z,3.62
2022-12-20T02:42:54.898Z,3.66
2022-12-20T02:45:27.367Z,3.69
2022-12-20T02:48:00.770Z,3.74
2022-12-20T02:50:33.602Z,3.67
2022-12-20T02:53:01.757Z,3.43
2022-12-20T02:55:40.296Z,3.47
2022-12-20T02:58:18.642Z,3.48
2022-12-20T03:00:54.263Z,3.50
2022-12-20T03:03:25.750Z,3.53
2022-12-20T03:05:56.135Z,3.83
2022-12-20T03:08:24.911Z,3.97
2022-12-20T03:10:54.546Z,3.73
2022-12-20T03:13:22.776Z,3.57
2022-12-20T03:15:52.585Z,3.47
2022-12-20T03:18:20.448Z,3.57
2022-12-20T03:20:48.467Z,3.62
2022-12-20T03:23:16.248Z,3.99
2022-12-20T03:25:44.063Z,3.93
2022-12-20T03:28:11.865Z,3.82
2022-12-20T03:30:39.998Z,3.83
2022-12-20T03:33:09.306Z,3.86
2022-12-20T03:35:37.123Z,3.85
2022-12-20T03:38:04.961Z,3.88
2022-12-20T03:40:32.895Z,3.85
2022-12-20T03:43:00.824Z,3.73
2022-12-20T03:45:28.699Z,3.85
2022-12-20T03:47:56.465Z,3.92
2022-12-20T03:50:25.722Z,3.72
2022-12-20T03:52:53.592Z,3.86
2022-12-20T03:55:21.459Z,3.66
2022-12-20T03:57:49.245Z,3.75
2022-12-20T04:00:18.181Z,3.72
2022-12-20T04:02:46.201Z,3.80
2022-12-20T04:05:14.174Z,3.71
2022-12-20T04:07:43.502Z,3.76
2022-12-20T04:10:12.292Z,3.77
2022-12-20T04:12:40.078Z,3.83
2022-12-20T04:15:09.811Z,3.81
2022-12-20T04:17:37.809Z,3.87
2022-12-20T04:20:18.982Z,3.88
2022-12-20T04:22:48.680Z,3.93
2022-12-20T04:25:18.510Z,3.96
2022-12-20T04:27:46.677Z,3.99
2022-12-20T04:30:15.216Z,4.01
2022-12-20T04:32:43.039Z,3.98
2022-12-20T04:35:11.783Z,3.87
2022-12-20T04:37:43.067Z,3.85
2022-12-20T04:40:13.191Z,3.97
2022-12-20T04:42:41.047Z,3.91
2022-12-20T04:45:09.630Z,3.86
2022-12-20T04:47:49.250Z,3.92
2022-12-20T04:50:18.475Z,3.96
2022-12-20T04:53:03.862Z,3.65
2022-12-20T04:55:37.551Z,3.61
2022-12-20T04:58:07.858Z,4.06
2022-12-20T05:00:36.574Z,3.84
2022-12-20T05:03:04.654Z,3.96
2022-12-20T05:05:32.859Z,4.11
2022-12-20T05:08:00.861Z,3.90
2022-12-20T05:10:28.838Z,3.98
2022-12-20T05:12:58.146Z,4.11
2022-12-20T05:15:26.094Z,4.16
2022-12-20T05:17:59.357Z,4.08
2022-12-20T05:20:28.198Z,3.98
2022-12-20T05:23:13.500Z,4.10
2022-12-20T05:26:01.389Z,4.16
2022-12-20T05:28:31.256Z,4.14
2022-12-20T05:30:59.312Z,4.23
2022-12-20T05:33:33.651Z,4.23
2022-12-20T05:36:02.082Z,4.22
2022-12-20T05:38:30.054Z,4.05
2022-12-20T05:40:58.067Z,4.12
2022-12-20T05:43:25.901Z,4.06
2022-12-20T05:45:55.100Z,4.10
2022-12-20T05:48:23.017Z,4.19
2022-12-20T05:50:50.857Z,4.31
2022-12-20T05:53:19.144Z,4.21
2022-12-20T05:55:49.283Z,4.12
2022-12-20T05:58:17.170Z,4.14
2022-12-20T06:00:45.701Z,4.20
2022-12-20T06:03:17.093Z,4.29
2022-12-20T06:05:45.970Z,4.34
2022-12-20T06:08:14.860Z,4.26
2022-12-20T06:10:42.734Z,4.18
2022-12-20T06:13:11.764Z,4.09
2022-12-20T06:15:39.965Z,4.15
2022-12-20T06:18:08.121Z,4.00
2022-12-20T06:20:37.688Z,4.06
2022-12-20T06:23:05.650Z,3.90
2022-12-20T06:25:33.653Z,3.98
2022-12-20T06:28:01.511Z,4.06
2022-12-20T06:30:33.839Z,4.06
2022-12-20T06:33:02.230Z,4.11
2022-12-20T06:35:30.635Z,3.94
2022-12-20T06:37:59.996Z,3.81
2022-12-20T06:40:28.435Z,3.90
2022-12-20T06:42:56.394Z,4.17
2022-12-20T06:45:27.294Z,4.04
2022-12-20T06:47:55.382Z,4.00
2022-12-20T06:50:23.695Z,4.16
2022-12-20T06:52:51.443Z,4.08
2022-12-20T06:55:20.640Z,4.31
2022-12-20T06:57:48.514Z,4.50
2022-12-20T07:00:17.969Z,4.41
2022-12-20T07:02:46.528Z,4.64
2022-12-20T07:05:14.728Z,4.67
2022-12-20T07:07:45.023Z,4.78
2022-12-20T07:10:13.674Z,4.67
2022-12-20T07:12:47.745Z,4.49
2022-12-20T07:15:31.535Z,4.59
2022-12-20T07:18:00.443Z,4.67
2022-12-20T07:20:28.275Z,4.70
2022-12-20T07:22:56.301Z,4.57
2022-12-20T07:25:24.787Z,4.65
2022-12-20T07:27:54.333Z,4.06
2022-12-20T07:30:23.277Z,4.58
2022-12-20T07:32:51.207Z,4.51
2022-12-20T07:35:19.370Z,4.60
2022-12-20T07:37:47.525Z,4.60
2022-12-20T07:40:16.358Z,4.62
2022-12-20T07:42:48.630Z,4.74
2022-12-20T07:45:18.626Z,4.73
2022-12-20T07:47:48.427Z,4.81
2022-12-20T07:50:16.249Z,4.78
2022-12-20T07:52:47.164Z,4.79
2022-12-20T07:55:16.119Z,4.74
2022-12-20T07:57:50.056Z,4.75
2022-12-20T08:00:20.047Z,4.77
2022-12-20T08:02:53.974Z,4.94
2022-12-20T08:05:23.226Z,4.87
2022-12-20T08:07:56.970Z,4.99
2022-12-20T08:10:27.633Z,5.04
2022-12-20T08:12:56.128Z,5.00
2022-12-20T08:15:26.275Z,5.01
2022-12-20T08:17:54.062Z,5.07
2022-12-20T08:20:21.974Z,5.15
2022-12-20T08:22:49.806Z,5.17
2022-12-20T08:25:17.660Z,5.15
2022-12-20T08:27:48.417Z,5.16
2022-12-20T08:30:16.811Z,5.13
2022-12-20T08:32:46.225Z,5.22
2022-12-20T08:35:14.652Z,5.29
2022-12-20T08:37:42.564Z,5.24
2022-12-20T08:40:11.574Z,5.40
2022-12-20T08:42:39.435Z,5.72
2022-12-20T08:45:08.086Z,5.76
2022-12-20T08:47:47.978Z,5.74
2022-12-20T08:50:17.357Z,5.64
2022-12-20T08:52:45.234Z,5.43
2022-12-20T08:55:13.373Z,5.87
2022-12-20T08:57:41.246Z,5.97
2022-12-20T09:00:12.182Z,5.96
2022-12-20T09:02:41.318Z,5.94
2022-12-20T09:05:10.051Z,5.67
2022-12-20T09:07:39.442Z,5.78
2022-12-20T09:10:09.133Z,5.96
2022-12-20T09:12:38.912Z,6.16
2022-12-20T09:15:08.084Z,6.20
2022-12-20T09:17:35.986Z,6.25
2022-12-20T09:20:04.068Z,6.36
2022-12-20T09:22:32.110Z,6.38
2022-12-20T09:25:01.280Z,6.65
2022-12-20T09:27:29.079Z,6.59
2022-12-20T09:29:57.271Z,6.49
2022-12-20T09:32:25.501Z,6.41
2022-12-20T09:34:53.294Z,6.36
2022-12-20T09:37:21.170Z,6.51
2022-12-20T09:39:49.879Z,6.42
2022-12-20T09:42:22.975Z,6.42
2022-12-20T09:44:50.911Z,6.39
2022-12-20T09:47:24.012Z,6.39
2022-12-20T09:49:55.003Z,6.52
2022-12-20T09:52:35.540Z,6.65
2022-12-20T09:55:17.100Z,6.55
2022-12-20T09:57:59.094Z,6.61
2022-12-20T10:00:27.025Z,6.67
2022-12-20T10:03:04.210Z,6.63
2022-12-20T10:05:47.057Z,6.88
2022-12-20T10:08:25.175Z,7.05
2022-12-20T10:10:57.160Z,7.24
2022-12-20T10:13:38.821Z,7.14
2022-12-20T10:16:21.411Z,7.35
2022-12-20T10:19:00.367Z,7.44
2022-12-20T10:21:41.751Z,7.39
2022-12-20T10:24:17.639Z,7.36
2022-12-20T10:26:46.782Z,7.38
2022-12-20T10:29:16.109Z,7.51
2022-12-20T10:31:44.134Z,7.27
2022-12-20T10:34:12.163Z,7.48
2022-12-20T10:36:39.987Z,7.24
2022-12-20T10:39:10.084Z,7.03
2022-12-20T10:41:51.791Z,7.04
2022-12-20T10:44:27.924Z,6.94
2022-12-20T10:46:58.214Z,6.88
2022-12-20T10:49:32.157Z,7.13
2022-12-20T10:52:02.609Z,6.98
2022-12-20T10:54:36.272Z,7.12
2022-12-20T10:57:15.735Z,7.07
2022-12-20T10:59:50.033Z,7.29
2022-12-20T11:02:26.404Z,7.35
2022-12-20T11:05:02.332Z,7.39
2022-12-20T11:07:32.615Z,7.59
2022-12-20T11:10:02.412Z,8.13
2022-12-20T11:12:30.606Z,7.99
2022-12-20T11:15:11.711Z,8.43
2022-12-20T11:17:46.429Z,8.06
2022-12-20T11:20:28.990Z,7.60
2022-12-20T11:23:08.512Z,7.35
2022-12-20T11:25:56.321Z,7.44
2022-12-20T11:28:41.852Z,7.71
2022-12-20T11:31:21.418Z,7.68
2022-12-20T11:34:01.280Z,7.76
2022-12-20T11:36:45.023Z,7.86
2022-12-20T11:39:22.575Z,8.63
2022-12-20T11:42:00.481Z,8.79
2022-12-20T11:44:53.900Z,8.34
2022-12-20T11:47:56.924Z,8.29
2022-12-20T11:50:59.726Z,8.21
2022-12-20T11:53:33.739Z,8.12
2022-12-20T11:56:07.825Z,7.94
2022-12-20T11:58:48.343Z,8.12
2022-12-20T12:01:21.039Z,7.99
2022-12-20T12:04:01.875Z,8.06
2022-12-20T12:06:34.613Z,7.73
2022-12-20T12:09:10.759Z,7.60
2022-12-20T12:14:39.835Z,7.71
2022-12-20T12:17:14.400Z,7.78
2022-12-20T12:19:50.981Z,7.79
2022-12-20T12:22:25.696Z,7.76
2022-12-20T12:24:59.152Z,8.10
2022-12-20T12:27:28.866Z,8.25
2022-12-20T12:29:59.482Z,8.34
2022-12-20T12:32:33.054Z,8.24
2022-12-20T12:35:18.308Z,8.21
2022-12-20T12:38:18.424Z,8.17
2022-12-20T12:41:15.679Z,8.28
2022-12-20T12:43:49.710Z,7.96
2022-12-20T12:46:24.118Z,8.26
2022-12-20T12:48:57.749Z,8.18
2022-12-20T12:51:32.832Z,8.24
2022-12-20T12:54:06.418Z,8.26
2022-12-20T12:56:44.607Z,8.58
2022-12-20T12:59:39.102Z,8.34
2022-12-20T13:02:27.320Z,8.19
2022-12-20T13:04:57.539Z,8.35
2022-12-20T13:07:43.651Z,8.46
2022-12-20T13:10:44.956Z,8.70
2022-12-20T13:13:23.701Z,8.46
2022-12-20T13:16:05.138Z,8.65
2022-12-20T13:18:33.325Z,8.37
2022-12-20T13:21:31.516Z,8.81
2022-12-20T13:24:40.321Z,8.80
2022-12-20T13:27:35.972Z,8.56
2022-12-20T13:30:26.302Z,8.66
2022-12-20T13:33:19.705Z,8.52
2022-12-20T13:36:03.092Z,8.62
2022-12-20T13:39:22.768Z,8.59
2022-12-20T13:42:07.343Z,8.65
2022-12-20T13:44:45.572Z,8.70
2022-12-20T13:47:50.212Z,8.79
2022-12-20T13:50:32.851Z,8.61
2022-12-20T13:53:00.788Z,8.49
2022-12-20T13:55:36.044Z,8.50
2022-12-20T13:58:12.582Z,8.73
2022-12-20T14:00:42.156Z,9.07
2022-12-20T14:03:21.343Z,8.89
2022-12-20T14:05:49.573Z,8.90
2022-12-20T14:08:21.475Z,8.87
2022-12-20T14:10:49.324Z,8.86
2022-12-20T14:13:23.490Z,9.14
2022-12-20T14:15:54.102Z,9.01
2022-12-20T14:18:24.664Z,8.70
2022-12-20T14:20:56.267Z,8.55
2022-12-20T14:23:27.315Z,8.52
2022-12-20T14:25:57.929Z,8.27
2022-12-20T14:28:32.187Z,8.30
2022-12-20T14:31:03.320Z,8.21
2022-12-20T14:33:35.200Z,8.26
2022-12-20T14:36:11.230Z,8.00
2022-12-20T14:38:41.470Z,7.98
2022-12-20T14:41:33.336Z,7.78
2022-12-20T14:44:05.214Z,7.84
2022-12-20T14:46:35.592Z,7.85
2022-12-20T14:49:16.071Z,7.79
2022-12-20T14:51:44.228Z,7.80
2022-12-20T14:54:39.823Z,7.81
2022-12-20T14:57:13.283Z,7.67
2022-12-20T14:59:41.101Z,7.80
2022-12-20T15:02:36.393Z,7.85
2022-12-20T15:05:09.888Z,7.74
2022-12-20T15:07:42.623Z,7.57
2022-12-20T15:10:10.524Z,7.61
2022-12-20T15:12:46.921Z,7.11
2022-12-20T15:15:31.231Z,7.34
2022-12-20T15:18:00.423Z,7.45
2022-12-20T15:20:28.217Z,7.18
2022-12-20T15:22:56.005Z,7.12
2022-12-20T15:25:23.793Z,7.29
2022-12-20T15:27:51.941Z,7.15
2022-12-20T15:30:19.935Z,7.18
2022-12-20T15:32:55.105Z,7.17
2022-12-20T15:35:25.810Z,7.08
2022-12-20T15:37:53.737Z,7.31
2022-12-20T15:40:21.502Z,7.26
2022-12-20T15:42:49.341Z,7.28
2022-12-20T15:45:17.502Z,7.28
2022-12-20T15:47:49.235Z,7.37
2022-12-20T15:50:17.131Z,7.34
2022-12-20T15:52:46.293Z,6.90
2022-12-20T15:55:14.115Z,7.03
2022-12-20T15:57:42.001Z,7.14
2022-12-20T16:00:12.735Z,7.08
2022-12-20T16:02:40.650Z,6.98
2022-12-20T16:05:13.594Z,6.91
2022-12-20T16:07:41.650Z,6.94
2022-12-20T16:10:15.280Z,6.73
2022-12-20T16:12:43.582Z,6.75
2022-12-20T16:15:21.485Z,6.72
2022-12-20T16:17:49.626Z,6.64
2022-12-20T16:20:17.476Z,6.59
2022-12-20T16:22:45.389Z,6.62
2022-12-20T16:25:25.994Z,6.75
2022-12-20T16:27:53.967Z,7.03
2022-12-20T16:30:22.425Z,6.78
2022-12-20T16:32:50.744Z,6.77
2022-12-20T16:35:27.415Z,7.05
2022-12-20T16:37:57.040Z,6.95
2022-12-20T16:40:27.921Z,7.04
2022-12-20T16:42:56.770Z,6.86
2022-12-20T16:45:30.346Z,6.88
2022-12-20T16:47:58.933Z,6.89
2022-12-20T16:50:28.900Z,7.00
2022-12-20T16:52:57.101Z,6.99
2022-12-20T16:55:28.409Z,6.95
2022-12-20T16:57:59.927Z,7.00
2022-12-20T17:00:28.092Z,6.92
2022-12-20T17:02:59.034Z,6.91
2022-12-20T17:05:29.536Z,6.72
2022-12-20T17:07:57.696Z,6.70
2022-12-20T17:10:28.186Z,6.65
2022-12-20T17:12:57.284Z,6.66
2022-12-20T17:15:27.803Z,6.32
2022-12-20T17:17:56.348Z,6.57
2022-12-20T17:20:24.879Z,6.57
2022-12-20T17:22:56.652Z,6.56
2022-12-20T17:25:30.906Z,6.48
2022-12-20T17:27:59.148Z,6.60
2022-12-20T17:30:27.885Z,6.61
2022-12-20T17:32:55.719Z,6.62
2022-12-20T17:35:30.405Z,6.63
2022-12-20T17:37:58.557Z,6.71
2022-12-20T17:40:27.652Z,6.79
2022-12-20T17:42:57.027Z,6.82
2022-12-20T17:45:28.667Z,6.87
2022-12-20T17:48:00.130Z,6.87
2022-12-20T17:50:28.707Z,6.87
2022-12-20T17:52:57.483Z,6.94
2022-12-20T17:55:27.416Z,6.83
2022-12-20T17:57:56.895Z,6.79
2022-12-20T18:00:30.619Z,6.76
2022-12-20T18:03:02.589Z,6.68
2022-12-20T18:05:30.764Z,6.66
2022-12-20T18:07:59.012Z,6.63
2022-12-20T18:10:26.817Z,6.62
2022-12-20T18:12:55.948Z,6.62
2022-12-20T18:15:23.878Z,6.71
2022-12-20T18:17:51.816Z,6.61
2022-12-20T18:20:19.831Z,6.58
2022-12-20T18:22:47.855Z,6.52
2022-12-20T18:25:18.210Z,6.63
2022-12-20T18:27:46.201Z,6.64
2022-12-20T18:30:15.858Z,6.63
2022-12-20T18:32:43.659Z,6.66
2022-12-20T18:35:14.087Z,6.68
2022-12-20T18:37:41.930Z,6.64
2022-12-20T18:40:10.518Z,6.49
2022-12-20T18:42:38.790Z,6.46
2022-12-20T18:45:07.340Z,6.52
2022-12-20T18:47:42.778Z,6.51
2022-12-20T18:50:14.434Z,6.54
2022-12-20T18:52:43.837Z,6.61
2022-12-20T18:55:15.566Z,6.59
2022-12-20T18:57:43.704Z,6.60
2022-12-20T19:00:12.675Z,6.62
2022-12-20T19:02:41.985Z,6.70
2022-12-20T19:05:10.264Z,6.60
2022-12-20T19:07:38.008Z,6.57
2022-12-20T19:10:06.632Z,6.43
2022-12-20T19:12:35.524Z,6.55
2022-12-20T19:15:03.512Z,6.76
2022-12-20T19:17:31.372Z,6.47
2022-12-20T19:20:00.557Z,6.47
2022-12-20T19:22:28.466Z,6.32
2022-12-20T19:24:56.758Z,6.36
2022-12-20T19:27:24.720Z,6.53
2022-12-20T19:29:54.494Z,6.64
2022-12-20T19:32:22.751Z,6.72
2022-12-20T19:34:50.629Z,6.77
2022-12-20T19:37:20.021Z,6.85
2022-12-20T19:39:47.910Z,6.62
2022-12-20T19:42:24.934Z,6.78
2022-12-20T19:44:53.352Z,6.63
2022-12-20T19:47:21.568Z,6.63
2022-12-20T19:49:49.351Z,6.55
2022-12-20T19:52:19.711Z,6.51
2022-12-20T19:54:52.800Z,6.53
2022-12-20T19:57:21.129Z,6.56
2022-12-20T19:59:55.381Z,6.59
2022-12-20T20:02:23.798Z,6.62
2022-12-20T20:04:51.795Z,6.47
2022-12-20T20:07:19.967Z,6.67
2022-12-20T20:09:48.113Z,6.70
2022-12-20T20:12:17.577Z,6.72
2022-12-20T20:14:45.737Z,6.66
2022-12-20T20:17:13.614Z,6.72
2022-12-20T20:19:42.676Z,6.68
2022-12-20T20:22:11.256Z,6.73
2022-12-20T20:24:39.294Z,6.73
2022-12-20T20:27:07.094Z,6.78
2022-12-20T20:29:36.716Z,6.75
2022-12-20T20:32:05.210Z,6.79
2022-12-20T20:34:33.036Z,6.75
2022-12-20T20:37:01.033Z,6.75
2022-12-20T20:39:29.196Z,6.65
2022-12-20T20:41:57.065Z,6.67
2022-12-20T20:44:24.860Z,6.68
2022-12-20T20:46:54.121Z,6.58
2022-12-20T20:49:22.006Z,6.64
2022-12-20T20:51:49.984Z,6.59
2022-12-20T20:54:18.055Z,6.55
2022-12-20T20:56:45.911Z,6.59
2022-12-20T20:59:17.756Z,6.61
2022-12-20T21:01:46.338Z,6.59
2022-12-20T21:04:15.713Z,6.58
2022-12-20T21:06:51.941Z,6.48
2022-12-20T21:09:20.001Z,6.60
2022-12-20T21:11:47.968Z,6.59
2022-12-20T21:14:16.670Z,6.57
2022-12-20T21:16:44.516Z,6.56
2022-12-20T21:19:12.523Z,6.47
2022-12-20T21:21:42.094Z,6.45
2022-12-20T21:24:10.087Z,6.29
2022-12-20T21:26:38.220Z,6.34
2022-12-20T21:29:06.201Z,6.08
2022-12-20T21:31:34.376Z,6.58
2022-12-20T21:34:02.386Z,6.48
2022-12-20T21:36:30.315Z,6.65
2022-12-20T21:39:00.343Z,6.35
2022-12-20T21:41:29.663Z,6.46
2022-12-20T21:43:58.701Z,6.34
2022-12-20T21:46:27.500Z,5.87
2022-12-20T21:48:56.162Z,6.19
2022-12-20T21:51:25.929Z,6.10
2022-12-20T21:53:55.618Z,6.19
2022-12-20T21:56:27.134Z,6.09
2022-12-20T21:58:55.391Z,6.17
2022-12-20T22:01:25.701Z,6.32
2022-12-20T22:03:55.180Z,6.27
2022-12-20T22:06:34.074Z,6.31
2022-12-20T22:09:07.352Z,6.36
2022-12-20T22:11:49.293Z,6.27
2022-12-20T22:14:27.248Z,6.00
2022-12-20T22:17:02.717Z,5.94
2022-12-20T22:19:36.206Z,6.30
2022-12-20T22:22:13.413Z,6.38
2022-12-20T22:24:47.609Z,6.22
2022-12-20T22:27:31.056Z,6.13
2022-12-20T22:29:59.316Z,6.34
2022-12-20T22:32:27.484Z,6.25
2022-12-20T22:34:55.573Z,6.23
2022-12-20T22:37:23.764Z,6.24
2022-12-20T22:39:51.855Z,6.09
2022-12-20T22:42:21.755Z,6.32
2022-12-20T22:44:49.843Z,6.21
2022-12-20T22:47:19.644Z,6.17
2022-12-20T22:49:47.895Z,6.31
2022-12-20T22:52:16.132Z,6.55
2022-12-20T22:54:44.668Z,6.31
2022-12-20T22:57:17.665Z,6.56
2022-12-20T22:59:49.790Z,6.32
2022-12-20T23:02:18.234Z,6.29
2022-12-20T23:04:46.338Z,6.26
2022-12-20T23:07:17.032Z,6.25
2022-12-20T23:09:45.223Z,6.37
2022-12-20T23:12:35.894Z,6.63
2022-12-20T23:15:28.248Z,6.47
2022-12-20T23:18:17.284Z,6.67
2022-12-20T23:21:09.581Z,6.83
2022-12-20T23:23:43.458Z,6.68
2022-12-20T23:26:16.815Z,6.34
2022-12-20T23:28:48.539Z,6.69
2022-12-20T23:31:26.654Z,6.71
2022-12-20T23:33:58.121Z,6.53
2022-12-20T23:36:35.061Z,6.34
2022-12-20T23:39:09.570Z,6.77
2022-12-20T23:41:40.799Z,7.03
2022-12-20T23:44:12.510Z,6.85
2022-12-20T23:46:42.189Z,6.83
2022-12-20T23:49:10.417Z,6.67
2022-12-20T23:51:38.659Z,6.57
2022-12-20T23:54:06.854Z,6.71
2022-12-20T23:56:35.330Z,6.92
2022-12-20T23:59:03.569Z,6.58
